createdAt,value
2022-11-20T00:01:27.980Z,17.73
2022-11-20T00:03:59.190Z,16.80
2022-11-20T00:06:29.093Z,15.93
2022-11-20T00:08:58.058Z,17.90
2022-11-20T00:11:27.810Z,15.80
2022-11-20T00:13:58.939Z,16.17
2022-11-20T00:16:28.930Z,15.60
2022-11-20T00:18:56.498Z,15.23
2022-11-20T00:21:26.117Z,15.27
2022-11-20T00:23:55.645Z,14.47
2022-11-20T00:26:25.422Z,14.73
2022-11-20T00:28:58.160Z,15.33
2022-11-20T00:31:26.584Z,14.73
2022-11-20T00:33:54.854Z,14.73
2022-11-20T00:36:30.350Z,15.43
2022-11-20T00:39:00.282Z,14.83
2022-11-20T00:41:29.144Z,15.17
2022-11-20T00:43:57.288Z,15.70
2022-11-20T00:46:26.956Z,15.37
2022-11-20T00:48:54.742Z,15.47
2022-11-20T00:51:25.532Z,16.30
2022-11-20T00:53:53.010Z,15.63
2022-11-20T00:56:21.062Z,16.37
2022-11-20T00:58:50.022Z,15.87
2022-11-20T01:01:25.335Z,16.33
2022-11-20T01:03:55.689Z,16.30
2022-11-20T01:06:28.173Z,15.83
2022-11-20T01:08:58.615Z,16.47
2022-11-20T01:11:31.177Z,15.57
2022-11-20T01:14:00.087Z,16.13
2022-11-20T01:16:39.889Z,15.80
2022-11-20T01:19:14.804Z,15.67
2022-11-20T01:21:45.775Z,15.53
2022-11-20T01:24:15.854Z,16.00
2022-11-20T01:26:44.049Z,16.07
2022-11-20T01:29:16.438Z,16.63
2022-11-20T01:31:44.359Z,15.40
2022-11-20T01:41:34.214Z,16.33
2022-11-20T01:44:04.435Z,15.80
2022-11-20T01:46:37.181Z,16.23
2022-11-20T01:49:22.032Z,16.57
2022-11-20T01:51:53.006Z,15.70
2022-11-20T01:54:25.271Z,16.33
2022-11-20T01:56:53.501Z,16.07
2022-11-20T01:59:21.608Z,16.43
2022-11-20T02:01:51.711Z,16.70
2022-11-20T02:04:22.668Z,16.60
2022-11-20T02:06:53.881Z,16.47
2022-11-20T02:09:21.463Z,17.10
2022-11-20T02:11:51.303Z,16.80
2022-11-20T02:14:18.719Z,16.40
2022-11-20T02:16:48.201Z,16.70
2022-11-20T02:19:32.116Z,16.43
2022-11-20T02:22:21.026Z,16.07
2022-11-20T02:24:50.360Z,16.33
2022-11-20T02:27:20.382Z,16.27
2022-11-20T02:30:03.791Z,16.17
2022-11-20T02:32:36.371Z,17.07
2022-11-20T02:35:31.360Z,15.97
2022-11-20T02:38:03.563Z,15.93
2022-11-20T02:40:32.581Z,16.37
2022-11-20T02:43:01.312Z,16.10
2022-11-20T02:45:29.409Z,17.20
2022-11-20T02:47:56.785Z,16.37
2022-11-20T02:50:24.499Z,16.40
2022-11-20T02:52:51.837Z,16.40
2022-11-20T02:55:19.313Z,16.37
2022-11-20T02:57:46.344Z,15.73
2022-11-20T03:00:15.254Z,16.10
2022-11-20T03:02:44.892Z,15.87
2022-11-20T03:05:12.349Z,16.47
2022-11-20T03:07:40.764Z,15.67
2022-11-20T03:10:08.428Z,16.57
2022-11-20T03:12:35.685Z,15.53
2022-11-20T03:15:06.313Z,16.10
2022-11-20T03:17:36.026Z,16.60
2022-11-20T03:20:04.767Z,15.23
2022-11-20T03:22:32.354Z,16.00
2022-11-20T03:25:00.166Z,15.83
2022-11-20T03:27:27.255Z,16.27
2022-11-20T03:29:54.414Z,16.33
2022-11-20T03:32:21.735Z,16.60
2022-11-20T03:34:50.542Z,16.23
2022-11-20T03:37:25.489Z,15.97
2022-11-20T03:39:57.502Z,16.70
2022-11-20T03:42:48.770Z,16.27
2022-11-20T03:45:20.304Z,16.47
2022-11-20T03:47:50.109Z,15.93
2022-11-20T03:50:18.949Z,16.27
2022-11-20T03:52:47.398Z,17.10
2022-11-20T03:55:18.616Z,16.93
2022-11-20T03:57:47.611Z,17.93
2022-11-20T04:00:18.203Z,17.33
2022-11-20T04:02:49.740Z,16.57
2022-11-20T04:05:21.681Z,17.20
2022-11-20T04:08:14.457Z,17.43
2022-11-20T04:10:47.318Z,17.23
2022-11-20T04:13:20.720Z,18.27
2022-11-20T04:15:56.474Z,16.43
2022-11-20T04:18:26.130Z,16.57
2022-11-20T04:21:04.408Z,16.93
2022-11-20T04:23:38.940Z,16.60
2022-11-20T04:26:15.268Z,16.63
2022-11-20T04:28:44.156Z,16.30
2022-11-20T04:31:17.409Z,16.27
2022-11-20T04:33:53.675Z,16.13
2022-11-20T04:36:32.945Z,15.93
2022-11-20T04:39:18.705Z,16.37
2022-11-20T04:42:18.824Z,16.97
2022-11-20T04:45:09.693Z,17.17
2022-11-20T04:47:38.624Z,16.60
2022-11-20T04:50:10.378Z,17.07
2022-11-20T04:52:41.076Z,16.57
2022-11-20T04:55:12.069Z,17.20
2022-11-20T04:57:42.429Z,16.73
2022-11-20T05:00:10.871Z,16.80
2022-11-20T05:02:51.408Z,16.37
2022-11-20T05:05:21.900Z,17.27
2022-11-20T05:10:40.071Z,19.00
2022-11-20T05:13:09.039Z,19.20
2022-11-20T05:15:42.443Z,19.07
2022-11-20T05:18:10.086Z,21.87
2022-11-20T05:20:37.896Z,23.53
2022-11-20T05:23:05.764Z,19.20
2022-11-20T05:25:35.086Z,19.90
2022-11-20T05:28:04.391Z,18.70
2022-11-20T05:30:36.060Z,20.83
2022-11-20T05:33:35.622Z,21.40
2022-11-20T05:36:06.079Z,19.90
2022-11-20T05:41:25.491Z,19.87
2022-11-20T05:43:58.615Z,18.83
2022-11-20T05:46:36.811Z,18.00
2022-11-20T05:49:06.694Z,18.07
2022-11-20T05:51:45.210Z,17.83
2022-11-20T05:54:16.740Z,17.67
2022-11-20T05:57:23.000Z,17.77
2022-11-20T05:59:53.047Z,17.13
2022-11-20T06:02:23.521Z,17.67
2022-11-20T06:04:59.407Z,17.80
2022-11-20T08:14:16.324Z,20.07
2022-11-20T08:16:50.403Z,21.23
2022-11-20T08:19:18.932Z,20.00
2022-11-20T08:21:45.783Z,20.47
2022-11-20T08:24:12.980Z,20.00
2022-11-20T08:26:42.121Z,20.57
2022-11-20T08:29:08.869Z,21.80
2022-11-20T08:31:35.646Z,21.43
2022-11-20T08:34:07.712Z,21.37
2022-11-20T08:36:36.039Z,20.97
2022-11-20T08:39:02.824Z,20.30
2022-11-20T08:41:31.769Z,20.20
2022-11-20T08:44:00.689Z,19.83
2022-11-20T08:46:36.424Z,20.67
2022-11-20T08:49:03.533Z,20.07
2022-11-20T08:51:30.210Z,20.60
2022-11-20T08:53:56.832Z,19.40
2022-11-20T08:56:23.498Z,18.87
2022-11-20T08:59:18.318Z,19.90
2022-11-20T09:01:40.014Z,19.20
2022-11-20T09:04:06.677Z,19.70
2022-11-20T09:06:33.226Z,20.43
2022-11-20T09:09:05.004Z,21.63
2022-11-20T09:11:33.335Z,22.97
2022-11-20T09:13:59.961Z,23.77
2022-11-20T09:16:26.523Z,20.67
2022-11-20T09:19:07.305Z,20.07
2022-11-20T09:21:39.636Z,20.47
2022-11-20T09:24:06.479Z,19.67
2022-11-20T09:26:33.070Z,20.03
2022-11-20T09:28:59.573Z,18.73
2022-11-20T09:31:27.174Z,19.07
2022-11-20T09:33:53.775Z,19.37
2022-11-20T09:36:20.518Z,19.43
2022-11-20T09:38:47.723Z,19.37
2022-11-20T09:41:48.793Z,21.87
2022-11-20T09:44:33.078Z,19.83
2022-11-20T09:47:09.447Z,19.70
2022-11-20T09:49:39.008Z,20.00
2022-11-20T09:52:39.519Z,19.70
2022-11-20T09:55:10.218Z,18.27
2022-11-20T09:57:39.528Z,19.33
2022-11-20T10:00:07.864Z,17.90
2022-11-20T10:02:53.546Z,19.60
2022-11-20T10:05:24.219Z,19.50
2022-11-20T10:08:03.076Z,19.53
2022-11-20T10:10:34.155Z,18.50
2022-11-20T10:13:13.035Z,19.00
2022-11-20T10:15:49.040Z,18.67
2022-11-20T10:18:28.450Z,18.60
2022-11-20T10:21:07.051Z,18.07
2022-11-20T10:24:09.231Z,20.57
2022-11-20T10:26:48.667Z,19.13
2022-11-20T10:29:20.543Z,21.47
2022-11-20T10:31:51.211Z,21.20
2022-11-20T10:34:26.459Z,21.80
2022-11-20T10:36:59.314Z,21.33
2022-11-20T10:39:34.019Z,20.37
2022-11-20T10:42:00.696Z,20.57
2022-11-20T10:44:47.895Z,20.80
2022-11-20T10:47:17.156Z,22.40
2022-11-20T10:49:50.320Z,23.67
2022-11-20T10:52:32.231Z,19.60
2022-11-20T10:55:20.103Z,19.17
2022-11-20T10:57:49.648Z,19.93
2022-11-20T11:00:18.148Z,22.60
2022-11-20T11:02:53.056Z,19.87
2022-11-20T11:05:41.756Z,21.33
2022-11-20T11:08:13.862Z,22.00
2022-11-20T11:10:54.684Z,22.00
2022-11-20T11:13:26.500Z,21.17
2022-11-20T11:15:53.920Z,20.37
2022-11-20T11:18:28.675Z,20.23
2022-11-20T11:20:56.264Z,21.87
2022-11-20T11:23:42.671Z,21.73
2022-11-20T11:26:26.782Z,20.50
2022-11-20T11:29:04.221Z,22.20
2022-11-20T11:31:35.479Z,20.67
2022-11-20T11:34:19.974Z,19.93
2022-11-20T11:36:57.733Z,19.20
2022-11-20T11:39:25.319Z,18.23
2022-11-20T11:41:52.718Z,21.63
2022-11-20T11:44:45.525Z,24.13
2022-11-20T11:47:25.155Z,18.43
2022-11-20T11:50:10.991Z,17.23
2022-11-20T11:52:48.261Z,17.63
2022-11-20T11:55:55.851Z,17.43
2022-11-20T11:58:37.547Z,17.20
2022-11-20T12:01:11.634Z,18.13
2022-11-20T12:03:39.705Z,15.80
2022-11-20T12:06:15.188Z,18.23
2022-11-20T12:08:50.370Z,19.83
2022-11-20T12:11:23.879Z,18.30
2022-11-20T12:14:16.436Z,17.40
2022-11-20T12:16:43.157Z,19.20
2022-11-20T12:19:14.508Z,18.27
2022-11-20T12:22:12.370Z,24.60
2022-11-20T12:24:50.231Z,20.70
2022-11-20T12:27:43.118Z,21.83
2022-11-20T12:30:14.300Z,20.53
2022-11-20T12:33:08.531Z,24.27
2022-11-20T12:35:56.609Z,19.20
2022-11-20T12:38:41.858Z,22.03
2022-11-20T12:41:47.289Z,20.23
2022-11-20T12:44:55.899Z,15.40
2022-11-20T12:47:32.805Z,17.00
2022-11-20T12:50:19.721Z,27.10
2022-11-20T12:52:56.757Z,20.13
2022-11-20T12:55:34.524Z,41.73
2022-11-20T12:58:19.581Z,21.30
2022-11-20T13:01:50.612Z,16.07
2022-11-20T13:04:41.853Z,14.60
2022-11-20T13:07:11.489Z,24.17
2022-11-20T13:09:45.175Z,16.37
2022-11-20T13:12:23.639Z,16.13
2022-11-20T13:15:12.723Z,29.10
2022-11-20T13:17:46.777Z,30.47
2022-11-20T13:20:16.438Z,24.13
2022-11-20T13:22:48.043Z,32.33
2022-11-20T13:25:26.902Z,20.90
2022-11-20T13:27:54.002Z,19.17
2022-11-20T13:30:25.653Z,20.80
2022-11-20T13:33:05.418Z,18.10
2022-11-20T13:35:34.492Z,16.03
2022-11-20T13:38:01.938Z,16.40
2022-11-20T13:40:28.573Z,16.03
2022-11-20T13:42:55.084Z,15.57
2022-11-20T13:45:29.975Z,15.50
2022-11-20T13:47:57.820Z,16.43
2022-11-20T13:50:50.021Z,17.47
2022-11-20T13:53:41.851Z,16.87
2022-11-20T13:56:37.744Z,16.90
2022-11-20T13:59:42.980Z,16.80
2022-11-20T14:02:16.300Z,16.83
2022-11-20T14:04:54.357Z,18.53
2022-11-20T14:07:23.280Z,19.10
2022-11-20T14:09:55.902Z,23.40
2022-11-20T14:12:31.812Z,36.60
2022-11-20T14:14:59.030Z,33.87
2022-11-20T14:17:32.431Z,27.10
2022-11-20T14:20:02.499Z,22.03
2022-11-20T14:22:29.442Z,20.87
2022-11-20T14:25:24.253Z,20.67
2022-11-20T14:27:56.366Z,20.80
2022-11-20T14:30:25.477Z,31.77
2022-11-20T14:32:53.020Z,26.50
2022-11-20T14:35:45.484Z,26.13
2022-11-20T14:38:15.723Z,24.30
2022-11-20T14:40:43.291Z,26.27
2022-11-20T14:43:22.708Z,26.30
2022-11-20T14:46:03.214Z,24.30
2022-11-20T14:48:37.914Z,22.93
2022-11-20T14:51:04.854Z,24.00
2022-11-20T14:53:31.401Z,22.20
2022-11-20T14:56:00.659Z,23.07
2022-11-20T14:58:30.145Z,22.60
2022-11-20T15:01:06.684Z,24.20
2022-11-20T15:03:40.321Z,21.90
2022-11-20T15:06:09.017Z,21.03
2022-11-20T15:08:36.138Z,23.83
2022-11-20T15:11:03.089Z,23.60
2022-11-20T15:13:35.710Z,24.50
2022-11-20T15:16:03.237Z,23.77
2022-11-20T15:18:48.293Z,21.43
2022-11-20T15:21:16.960Z,20.87
2022-11-20T15:23:43.982Z,22.10
2022-11-20T15:26:18.385Z,22.57
2022-11-20T15:28:51.287Z,21.93
2022-11-20T15:31:20.814Z,20.80
2022-11-20T15:33:47.620Z,19.90
2022-11-20T15:36:14.401Z,19.67
2022-11-20T15:38:41.381Z,19.07
2022-11-20T15:41:08.550Z,19.23
2022-11-20T15:43:35.387Z,19.00
2022-11-20T15:46:07.617Z,19.63
2022-11-20T15:48:47.884Z,25.10
2022-11-20T15:51:28.138Z,23.13
2022-11-20T15:53:55.944Z,22.57
2022-11-20T15:56:22.680Z,22.53
2022-11-20T15:58:49.278Z,21.27
2022-11-20T16:01:18.977Z,21.90
2022-11-20T16:03:46.069Z,21.93
2022-11-20T16:06:12.633Z,21.10
2022-11-20T16:08:39.188Z,21.13
2022-11-20T16:11:05.860Z,20.67
2022-11-20T16:13:51.489Z,19.17
2022-11-20T16:16:29.702Z,19.40
2022-11-20T16:18:56.314Z,19.53
2022-11-20T16:21:28.394Z,19.70
2022-11-20T16:23:55.044Z,20.00
2022-11-20T16:26:21.760Z,19.97
2022-11-20T16:28:48.343Z,19.73
2022-11-20T16:31:17.821Z,20.27
2022-11-20T16:33:50.143Z,20.17
2022-11-20T16:36:16.826Z,20.77
2022-11-20T16:38:43.348Z,23.50
2022-11-20T16:41:14.417Z,23.57
2022-11-20T16:43:51.924Z,23.70
2022-11-20T16:46:20.178Z,25.63
2022-11-20T16:48:56.121Z,27.77
2022-11-20T16:51:24.150Z,41.07
2022-11-20T16:53:51.335Z,31.30
2022-11-20T16:56:20.261Z,31.60
2022-11-20T16:58:48.662Z,30.20
2022-11-20T17:01:17.381Z,37.73
2022-11-20T17:03:46.309Z,41.10
2022-11-20T17:06:17.591Z,42.77
2022-11-20T17:08:45.000Z,32.53
2022-11-20T17:11:13.397Z,29.87
2022-11-20T17:13:40.373Z,29.13
2022-11-20T17:16:14.825Z,30.20
2022-11-20T17:18:41.554Z,29.73
2022-11-20T17:21:08.164Z,31.63
2022-11-20T17:23:37.329Z,38.53
2022-11-20T17:26:06.045Z,36.70
2022-11-20T17:28:32.834Z,33.70
2022-11-20T17:31:04.562Z,32.63
2022-11-20T17:33:31.173Z,29.40
2022-11-20T17:35:57.908Z,24.83
2022-11-20T17:38:24.740Z,21.13
2022-11-20T17:40:51.425Z,19.67
2022-11-20T17:43:18.035Z,23.07
2022-11-20T17:45:45.107Z,23.13
2022-11-20T17:48:12.442Z,22.07
2022-11-20T17:50:40.155Z,22.20
2022-11-20T17:53:07.557Z,20.07
2022-11-20T17:55:55.812Z,20.37
2022-11-20T17:58:25.136Z,19.70
2022-11-20T18:00:51.945Z,20.13
2022-11-20T18:03:18.570Z,20.13
2022-11-20T18:05:45.116Z,19.63
2022-11-20T18:08:11.673Z,19.00
2022-11-20T18:10:38.444Z,20.87
2022-11-20T18:13:05.026Z,21.00
2022-11-20T18:15:31.649Z,20.17
2022-11-20T18:17:58.247Z,20.97
2022-11-20T18:20:31.097Z,22.20
2022-11-20T18:22:58.832Z,21.37
2022-11-20T18:25:25.430Z,22.23
2022-11-20T18:27:52.001Z,23.30
2022-11-20T18:30:18.601Z,23.63
2022-11-20T18:32:45.279Z,25.67
2022-11-20T18:35:11.929Z,24.30
2022-11-20T18:37:38.483Z,25.30
2022-11-20T18:40:05.611Z,25.63
2022-11-20T18:42:50.492Z,24.43
2022-11-20T18:45:17.218Z,26.33
2022-11-20T18:47:44.060Z,26.50
2022-11-20T18:50:10.713Z,25.87
2022-11-20T18:52:41.995Z,26.07
2022-11-20T18:55:09.220Z,24.57
2022-11-20T18:57:35.919Z,25.63
2022-11-20T19:00:08.875Z,25.57
2022-11-20T19:02:41.131Z,27.27
2022-11-20T19:05:13.467Z,26.70
2022-11-20T19:07:42.413Z,27.40
2022-11-20T19:10:09.409Z,27.10
2022-11-20T19:12:36.007Z,25.63
2022-11-20T19:15:02.789Z,24.70
2022-11-20T19:17:29.425Z,25.00
2022-11-20T19:19:56.100Z,24.87
2022-11-20T19:22:22.811Z,24.60
2022-11-20T19:24:49.528Z,24.63
2022-11-20T19:27:16.370Z,24.97
2022-11-20T19:29:43.008Z,26.60
2022-11-20T19:32:09.628Z,26.10
2022-11-20T19:34:36.199Z,27.97
2022-11-20T19:37:02.849Z,26.83
2022-11-20T19:39:29.521Z,27.93
2022-11-20T19:41:56.166Z,26.27
2022-11-20T19:44:22.821Z,28.40
2022-11-20T19:46:50.892Z,26.90
2022-11-20T19:49:17.555Z,28.37
2022-11-20T19:51:46.698Z,26.03
2022-11-20T19:54:13.631Z,24.83
2022-11-20T19:56:40.284Z,31.77
2022-11-20T19:59:06.846Z,30.70
2022-11-20T20:01:35.391Z,32.97
2022-11-20T20:04:03.589Z,30.43
2022-11-20T20:06:30.864Z,32.13
2022-11-20T20:09:08.827Z,31.43
2022-11-20T20:11:36.032Z,53.27
2022-11-20T20:14:10.804Z,79.00
2022-11-20T20:16:37.515Z,45.07
2022-11-20T20:19:05.348Z,55.00
2022-11-20T20:21:34.040Z,60.07
2022-11-20T20:24:01.059Z,44.53
2022-11-20T20:26:30.624Z,37.23
2022-11-20T20:28:57.573Z,33.90
2022-11-20T20:31:26.793Z,33.83
2022-11-20T20:33:53.978Z,32.03
2022-11-20T20:36:22.122Z,32.87
2022-11-20T20:38:52.515Z,35.20
2022-11-20T20:41:20.292Z,32.20
2022-11-20T20:44:05.696Z,29.13
2022-11-20T20:46:32.273Z,27.60
2022-11-20T20:48:58.847Z,27.47
2022-11-20T20:51:25.492Z,27.27
2022-11-20T20:53:52.066Z,28.53
2022-11-20T20:56:18.779Z,28.30
2022-11-20T20:58:45.669Z,28.17
2022-11-20T21:01:17.067Z,28.80
2022-11-20T21:03:43.829Z,26.23
2022-11-20T21:06:11.333Z,32.60
2022-11-20T21:08:40.652Z,28.37
2022-11-20T21:11:13.004Z,25.73
2022-11-20T21:13:40.523Z,22.93
2022-11-20T21:16:07.438Z,23.43
2022-11-20T21:18:34.598Z,21.23
2022-11-20T21:21:23.494Z,20.00
2022-11-20T21:23:51.335Z,18.60
2022-11-20T21:26:17.875Z,19.00
2022-11-20T21:28:44.535Z,17.87
2022-11-20T21:31:16.559Z,16.30
2022-11-20T21:33:44.755Z,16.67
2022-11-20T21:36:16.128Z,16.83
2022-11-20T21:38:43.271Z,18.30
2022-11-20T21:41:11.110Z,16.67
2022-11-20T21:43:38.150Z,16.10
2022-11-20T21:46:10.157Z,16.40
2022-11-20T21:48:38.084Z,16.00
2022-11-20T21:51:12.536Z,15.77
2022-11-20T21:53:39.706Z,15.97
2022-11-20T21:56:08.446Z,16.23
2022-11-20T21:58:35.945Z,16.53
2022-11-20T22:01:13.504Z,15.70
2022-11-20T22:03:40.506Z,15.87
2022-11-20T22:06:08.620Z,17.47
2022-11-20T22:08:36.384Z,17.00
2022-11-20T22:11:08.697Z,16.63
2022-11-20T22:13:53.879Z,16.03
2022-11-20T22:16:20.981Z,16.10
2022-11-20T22:18:50.783Z,16.93
2022-11-20T22:21:19.593Z,15.27
2022-11-20T22:23:46.256Z,14.70
2022-11-20T22:26:15.039Z,15.67
2022-11-20T22:28:42.133Z,14.40
2022-11-20T22:31:11.798Z,12.33
2022-11-20T22:33:39.094Z,13.50
2022-11-20T22:36:08.247Z,12.10
2022-11-20T22:38:39.147Z,13.47
2022-11-20T22:41:10.255Z,13.03
2022-11-20T22:43:37.225Z,13.10
2022-11-20T22:46:05.583Z,12.57
2022-11-20T22:48:33.574Z,12.00
2022-11-20T22:51:20.234Z,11.67
2022-11-20T22:53:47.398Z,11.47
2022-11-20T22:56:14.579Z,11.30
2022-11-20T22:58:43.451Z,10.50
2022-11-20T23:01:12.401Z,10.27
2022-11-20T23:03:39.872Z,10.50
2022-11-20T23:06:07.033Z,11.00
2022-11-20T23:08:33.873Z,11.03
2022-11-20T23:11:08.699Z,10.20
2022-11-20T23:13:35.823Z,10.70
2022-11-20T23:16:05.801Z,10.10
2022-11-20T23:18:33.835Z,9.47
2022-11-20T23:21:08.397Z,10.60
2022-11-20T23:23:35.153Z,10.93
2022-11-20T23:26:07.020Z,10.97
2022-11-20T23:28:34.047Z,11.30
2022-11-20T23:31:01.064Z,11.63
2022-11-20T23:33:27.775Z,11.00
2022-11-20T23:35:54.603Z,11.43
2022-11-20T23:38:21.637Z,11.03
2022-11-20T23:40:52.271Z,10.67
2022-11-20T23:43:20.558Z,11.17
2022-11-20T23:45:49.168Z,10.70
2022-11-20T23:48:15.831Z,10.40
2022-11-20T23:50:43.727Z,10.50
2022-11-20T23:53:11.565Z,10.47
2022-11-20T23:55:38.252Z,10.43
2022-11-20T23:58:05.285Z,10.50
